Time;durP1;ratioP1;P1;durP2;ratioP2;P2;SDS_P1;SDS_P2;PMS_P1;PMS_P2;Temp;Humidity;BMP_temperature;BMP_pressure;BME280_temperature;BME280_humidity;BME280_pressure;Samples;Min_cycle;Max_cycle;Signal;HPM_P1;HPM_P2
2021/04/26 00:00:06;;;;;;;5.42;4.47;;;;;;;4.05;85.56;99269.69;1806362;79;21064;-60
2021/04/26 00:02:35;;;;;;;6.67;4.90;;;;;;;4.02;85.80;99290.33;1821128;78;21115;-60
2021/04/26 00:05:06;;;;;;;6.37;4.95;;;;;;;4.02;86.02;99300.63;1806435;79;21032;-60
2021/04/26 00:07:34;;;;;;;7.65;5.03;;;;;;;4.07;86.17;99310.84;1822057;78;21368;-60
2021/04/26 00:10:03;;;;;;;5.15;4.60;;;;;;;4.10;86.29;99300.06;1806343;78;21080;-60
2021/04/26 00:12:30;;;;;;;5.42;4.87;;;;;;;4.15;86.43;99303.84;1822134;78;21488;-59
2021/04/26 00:15:05;;;;;;;5.42;4.47;;;;;;;4.20;86.38;99302.48;1804170;79;21048;-59
2021/04/26 00:17:34;;;;;;;7.40;5.22;;;;;;;4.20;86.01;99294.76;1822408;78;21500;-59
2021/04/26 00:20:10;;;;;;;6.72;4.33;;;;;;;4.17;86.30;99289.22;1806507;79;21326;-59
2021/04/26 00:22:38;;;;;;;3.70;3.40;;;;;;;4.11;86.84;99295.33;1821961;78;21103;-59
2021/04/26 00:25:07;;;;;;;4.37;3.98;;;;;;;4.00;87.35;99289.94;1806375;79;21119;-59
2021/04/26 00:27:35;;;;;;;4.42;4.03;;;;;;;3.84;86.87;99271.36;1822228;78;21166;-59
2021/04/26 00:30:05;;;;;;;4.42;4.03;;;;;;;3.65;87.03;99273.40;1806431;79;21032;-59
2021/04/26 00:32:33;;;;;;;4.03;3.62;;;;;;;3.50;87.79;99276.23;1822172;78;21207;-59
2021/04/26 00:35:04;;;;;;;4.08;3.67;;;;;;;3.39;88.54;99266.12;1806308;79;21088;-59
2021/04/26 00:37:31;;;;;;;4.85;4.28;;;;;;;3.29;89.08;99260.70;1822144;78;21057;-59
2021/04/26 00:39:59;;;;;;;4.22;3.83;;;;;;;3.18;89.20;99269.03;1806374;79;21107;-59
2021/04/26 00:42:26;;;;;;;5.30;4.03;;;;;;;3.06;89.64;99267.91;1822099;78;21107;-59
2021/04/26 00:44:53;;;;;;;4.72;4.17;;;;;;;2.98;90.47;99278.31;1806416;79;21380;-59
2021/04/26 00:47:21;;;;;;;4.90;4.40;;;;;;;2.90;90.76;99280.55;1822075;78;21091;-60
2021/04/26 00:49:49;;;;;;;4.08;3.67;;;;;;;2.81;91.19;99266.11;1822129;78;21588;-59
2021/04/26 00:52:16;;;;;;;5.03;4.53;;;;;;;2.71;91.91;99265.83;1806373;79;21118;-59
2021/04/26 00:54:44;;;;;;;4.72;4.10;;;;;;;2.61;92.29;99263.80;1822150;78;21615;-59
2021/04/26 00:57:13;;;;;;;4.83;4.35;;;;;;;2.52;92.75;99275.48;1777685;79;21202;-57
2021/04/26 00:59:41;;;;;;;4.55;4.03;;;;;;;2.41;92.92;99268.33;1822093;78;21067;-58
2021/04/26 01:02:09;;;;;;;4.45;3.92;;;;;;;2.30;92.80;99276.59;1806291;79;21144;-59
2021/04/26 01:04:36;;;;;;;4.10;3.42;;;;;;;2.13;92.65;99269.52;1822084;78;21067;-59
2021/04/26 01:07:05;;;;;;;4.45;4.00;;;;;;;1.96;92.93;99269.27;1806252;79;21631;-58
2021/04/26 01:09:33;;;;;;;5.33;4.25;;;;;;;1.84;93.21;99268.09;1822165;78;21191;-58
2021/04/26 01:12:46;;;;;;;4.08;3.25;;;;;;;1.73;93.71;99260.52;1822042;78;21495;-59
2021/04/26 01:15:28;;;;;;;4.37;3.35;;;;;;;1.68;94.12;99269.95;1806393;79;21060;-60
2021/04/26 01:18:02;;;;;;;3.40;3.10;;;;;;;1.60;94.74;99268.34;1822261;78;21103;-59
2021/04/26 01:20:38;;;;;;;3.02;2.42;;;;;;;1.55;95.38;99266.23;1819200;78;21027;-59
2021/04/26 01:23:45;;;;;;;2.92;2.60;;;;;;;1.47;95.42;99265.01;1822098;78;21362;-59
2021/04/26 01:26:36;;;;;;;4.30;2.75;;;;;;;1.38;95.42;99266.38;1738382;78;22007;-59
2021/04/26 01:29:17;;;;;;;3.33;2.75;;;;;;;1.28;95.67;99252.78;1806448;79;21118;-59
2021/04/26 01:31:56;;;;;;;3.20;2.70;;;;;;;1.21;95.87;99250.26;1820929;78;21165;-59
2021/04/26 01:34:25;;;;;;;4.30;2.72;;;;;;;1.16;95.97;99252.88;1806359;79;21587;-59
2021/04/26 01:36:55;;;;;;;3.45;2.62;;;;;;;1.09;96.06;99239.69;1817858;78;22090;-59
2021/04/26 01:39:23;;;;;;;3.67;3.20;;;;;;;1.07;96.41;99241.41;1777852;79;21059;-59
2021/04/26 01:41:51;;;;;;;3.00;2.70;;;;;;;1.01;96.51;99240.16;1822030;78;21115;-59
2021/04/26 01:44:19;;;;;;;2.17;2.02;;;;;;;0.96;96.57;99241.49;1806334;79;21461;-59
2021/04/26 01:46:47;;;;;;;1.82;1.70;;;;;;;0.93;96.66;99238.09;1822114;78;21091;-59
2021/04/26 01:49:15;;;;;;;2.20;2.00;;;;;;;0.91;96.89;99247.49;1806318;79;21449;-59
2021/04/26 01:51:42;;;;;;;2.10;1.90;;;;;;;0.88;97.02;99257.32;1822028;78;21066;-59
2021/04/26 01:54:10;;;;;;;3.87;1.90;;;;;;;0.84;97.07;99265.88;1822038;78;21044;-61
2021/04/26 01:56:39;;;;;;;1.65;1.42;;;;;;;0.81;96.93;99266.31;1806072;79;38766;-60
2021/04/26 01:59:08;;;;;;;2.15;1.70;;;;;;;0.73;96.94;99262.96;1821827;78;21154;-59
2021/04/26 02:01:35;;;;;;;1.60;1.47;;;;;;;0.67;97.01;99273.64;1806319;79;21213;-60
2021/04/26 02:04:06;;;;;;;1.75;1.40;;;;;;;0.64;97.17;99270.25;1821995;78;21182;-59
2021/04/26 02:06:43;;;;;;;1.72;1.40;;;;;;;0.62;97.30;99266.84;1806330;79;21076;-59
2021/04/26 02:09:12;;;;;;;2.33;1.72;;;;;;;0.59;97.40;99268.16;1778355;78;21064;-59
2021/04/26 02:11:43;;;;;;;1.90;1.75;;;;;;;0.58;97.55;99274.14;1806366;79;21052;-59
2021/04/26 02:14:11;;;;;;;1.50;1.30;;;;;;;0.56;97.61;99270.73;1822070;78;21364;-60
2021/04/26 02:16:40;;;;;;;1.72;1.52;;;;;;;0.53;97.65;99271.59;1806267;79;21089;-60
2021/04/26 02:19:08;;;;;;;1.47;1.32;;;;;;;0.53;97.72;99268.17;1822025;78;21147;-60
2021/04/26 02:21:41;;;;;;;1.72;1.40;;;;;;;0.52;97.88;99279.27;1806265;79;21063;-60
2021/04/26 02:24:10;;;;;;;0.85;0.85;;;;;;;0.53;97.93;99277.14;1822331;78;21064;-59
2021/04/26 02:26:38;;;;;;;1.30;1.00;;;;;;;0.54;98.03;99275.00;1806312;79;21368;-59
2021/04/26 02:29:06;;;;;;;1.20;1.10;;;;;;;0.55;98.07;99249.41;1821980;78;21119;-59
2021/04/26 02:31:35;;;;;;;1.00;0.90;;;;;;;0.53;98.07;99251.12;1806352;79;21147;-59
2021/04/26 02:34:14;;;;;;;1.20;1.10;;;;;;;0.50;98.07;99244.73;1822046;78;21048;-59
2021/04/26 02:36:51;;;;;;;6.55;4.78;;;;;;;0.49;98.02;99239.62;1821814;78;21123;-60
2021/04/26 02:39:18;;;;;;;2.52;1.98;;;;;;;0.47;98.12;99231.95;1822105;78;21374;-59
2021/04/26 02:41:46;;;;;;;1.40;1.30;;;;;;;0.45;98.21;99241.33;1818973;78;21150;-59
2021/04/26 02:44:26;;;;;;;1.55;1.40;;;;;;;0.45;98.23;99234.09;1806322;79;21131;-59
2021/04/26 02:47:03;;;;;;;1.35;1.22;;;;;;;0.44;98.20;99233.23;1792241;78;21045;-60
2021/04/26 02:49:32;;;;;;;1.47;1.17;;;;;;;0.45;98.33;99236.64;1822136;78;21488;-60
2021/04/26 02:52:00;;;;;;;1.75;1.25;;;;;;;0.45;98.42;99237.92;1806495;79;21178;-60
2021/04/26 02:54:27;;;;;;;1.50;1.20;;;;;;;0.46;98.52;99231.52;1822136;78;21128;-60
2021/04/26 02:56:57;;;;;;;0.95;0.80;;;;;;;0.45;98.50;99233.66;1806468;79;21182;-60
2021/04/26 02:59:26;;;;;;;1.98;1.60;;;;;;;0.44;98.32;99226.84;1822335;78;21559;-60
2021/04/26 03:01:56;;;;;;;1.25;1.15;;;;;;;0.42;98.50;99228.98;1806591;79;21127;-60
2021/04/26 03:04:42;;;;;;;1.60;1.50;;;;;;;0.42;98.53;99238.78;1822273;78;21202;-60
2021/04/26 03:07:10;;;;;;;1.42;1.10;;;;;;;0.44;98.59;99239.63;1806325;79;21060;-60
2021/04/26 03:09:52;;;;;;;1.37;1.15;;;;;;;0.45;98.69;99231.53;1821815;78;21055;-58
2021/04/26 03:12:20;;;;;;;1.30;1.17;;;;;;;0.47;98.81;99238.77;1806446;79;21491;-59
2021/04/26 03:14:48;;;;;;;1.35;1.20;;;;;;;0.50;98.91;99231.94;1822223;78;21107;-59
2021/04/26 03:17:16;;;;;;;1.37;1.20;;;;;;;0.54;98.88;99231.50;1806446;79;21372;-59
2021/04/26 03:19:45;;;;;;;1.50;1.40;;;;;;;0.58;99.08;99237.03;1821096;78;21139;-59
2021/04/26 03:22:14;;;;;;;1.77;1.67;;;;;;;0.63;99.24;99229.72;1806441;79;21048;-59
2021/04/26 03:24:43;;;;;;;1.60;1.22;;;;;;;0.66;99.08;99218.63;1822243;78;21051;-59
2021/04/26 03:27:11;;;;;;;2.40;1.62;;;;;;;0.72;99.19;99212.62;1806461;79;21036;-60
2021/04/26 03:29:40;;;;;;;1.50;1.40;;;;;;;0.75;99.11;99207.49;1822230;78;21340;-60
2021/04/26 03:32:08;;;;;;;2.02;1.70;;;;;;;0.76;98.99;99211.33;1806482;79;21540;-60
2021/04/26 03:34:37;;;;;;;1.55;1.40;;;;;;;0.78;98.79;99219.84;1821549;78;21124;-60
2021/04/26 03:37:05;;;;;;;1.62;1.32;;;;;;;0.83;98.81;99230.03;1792443;78;21198;-60
2021/04/26 03:39:34;;;;;;;1.87;1.70;;;;;;;0.85;98.76;99231.73;1806456;79;21064;-60
2021/04/26 03:42:02;;;;;;;1.57;1.47;;;;;;;0.88;98.80;99241.95;1822251;78;22105;-60
2021/04/26 03:44:32;;;;;;;2.20;1.65;;;;;;;0.93;98.87;99235.11;1806342;79;21080;-60
2021/04/26 03:47:05;;;;;;;2.98;1.70;;;;;;;0.98;98.71;99227.40;1781949;78;21166;-60
2021/04/26 03:49:52;;;;;;;2.60;2.00;;;;;;;1.01;98.79;99217.95;1822235;78;21068;-60
2021/04/26 03:52:38;;;;;;;1.87;1.50;;;;;;;1.06;98.78;99218.36;1822228;78;21087;-60
2021/04/26 03:55:09;;;;;;;2.20;1.80;;;;;;;1.10;98.67;99229.02;1806125;79;21552;-60
2021/04/26 03:57:37;;;;;;;1.95;1.52;;;;;;;1.12;98.55;99218.33;1822085;78;21111;-60
2021/04/26 04:00:09;;;;;;;1.50;1.40;;;;;;;1.19;98.66;99222.55;1806419;79;21036;-60
2021/04/26 04:02:38;;;;;;;1.92;1.60;;;;;;;1.24;98.80;99219.07;1820071;78;21579;-60
2021/04/26 04:05:08;;;;;;;2.08;1.60;;;;;;;1.29;98.51;99217.33;1806465;79;21536;-60
2021/04/26 04:07:50;;;;;;;2.17;1.50;;;;;;;1.31;98.23;99223.29;1799665;78;21201;-61
2021/04/26 04:10:35;;;;;;;2.22;1.80;;;;;;;1.36;98.16;99221.98;1820420;78;21115;-60
2021/04/26 04:13:17;;;;;;;2.35;2.10;;;;;;;1.40;98.01;99224.09;1785291;79;21114;-60
2021/04/26 04:15:45;;;;;;;2.30;2.10;;;;;;;1.43;98.06;99221.05;1810973;79;21155;-60
2021/04/26 04:18:14;;;;;;;1.92;1.70;;;;;;;1.50;98.22;99230.39;1795967;79;21130;-60
2021/04/26 04:20:44;;;;;;;2.25;1.90;;;;;;;1.59;98.10;99225.19;1810962;79;21365;-61
2021/04/26 04:23:12;;;;;;;2.65;2.40;;;;;;;1.66;97.92;99220.41;1796127;79;21075;-61
2021/04/26 04:25:41;;;;;;;2.25;2.00;;;;;;;1.71;97.75;99216.52;1810916;79;21049;-60
2021/04/26 04:28:09;;;;;;;1.87;1.65;;;;;;;1.80;97.93;99224.11;1796238;79;21138;-60
2021/04/26 04:30:37;;;;;;;2.27;1.90;;;;;;;1.91;97.92;99227.86;1810920;79;21120;-60
2021/04/26 04:33:23;;;;;;;2.00;1.80;;;;;;;1.99;97.98;99224.36;1796290;79;21441;-60
2021/04/26 04:36:10;;;;;;;2.27;1.80;;;;;;;2.13;98.15;99238.73;1810925;79;21096;-60
2021/04/26 04:38:58;;;;;;;2.55;1.85;;;;;;;2.20;97.91;99237.81;1796221;79;21085;-60
2021/04/26 04:41:27;;;;;;;2.98;2.30;;;;;;;2.22;96.95;99242.47;1811223;79;21143;-60
2021/04/26 04:43:56;;;;;;;1.92;1.67;;;;;;;2.21;96.33;99245.46;1796218;79;21114;-60
2021/04/26 04:46:24;;;;;;;2.40;2.10;;;;;;;2.21;96.26;99249.31;1810930;79;21380;-60
2021/04/26 04:48:54;;;;;;;1.72;1.55;;;;;;;2.22;95.89;99248.45;1796137;79;21086;-60
2021/04/26 04:51:23;;;;;;;1.92;1.62;;;;;;;2.23;95.51;99250.14;1810916;79;21056;-60
